createdAt,value
2018-12-24T00:00:30.086Z,9.50
2018-12-24T00:02:59.570Z,9.50
2018-12-24T00:05:28.728Z,9.50
2018-12-24T00:07:57.724Z,9.50
2018-12-24T00:10:26.319Z,9.50
2018-12-24T00:12:55.041Z,9.60
2018-12-24T00:15:24.179Z,9.50
2018-12-24T00:17:52.866Z,9.60
2018-12-24T00:20:21.726Z,9.60
2018-12-24T00:22:51.168Z,9.50
2018-12-24T00:25:20.463Z,9.60
2018-12-24T00:27:49.664Z,9.60
2018-12-24T00:30:18.565Z,9.50
2018-12-24T00:32:47.659Z,9.60
2018-12-24T00:35:16.608Z,9.60
2018-12-24T00:37:45.588Z,9.70
2018-12-24T00:40:14.572Z,9.60
2018-12-24T00:42:43.759Z,9.70
2018-12-24T00:45:12.975Z,9.70
2018-12-24T00:47:42.272Z,9.70
2018-12-24T00:50:11.477Z,9.60
2018-12-24T00:52:40.916Z,9.70
2018-12-24T00:55:09.632Z,9.60
2018-12-24T00:57:38.707Z,9.60
2018-12-24T01:00:07.496Z,9.70
2018-12-24T01:02:37.392Z,9.60
2018-12-24T01:05:07.504Z,9.60
2018-12-24T01:07:36.441Z,9.60
2018-12-24T01:10:05.934Z,9.60
2018-12-24T01:12:35.965Z,9.60
2018-12-24T01:15:05.039Z,9.60
2018-12-24T01:17:33.464Z,9.70
2018-12-24T01:20:02.260Z,9.70
2018-12-24T01:22:31.101Z,9.70
2018-12-24T01:24:59.937Z,9.70
2018-12-24T01:27:28.764Z,9.70
2018-12-24T01:29:57.720Z,9.60
2018-12-24T01:32:27.239Z,9.70
2018-12-24T01:34:56.941Z,9.70
2018-12-24T01:37:25.484Z,9.70
2018-12-24T01:39:54.823Z,9.70
2018-12-24T01:42:23.939Z,9.70
2018-12-24T01:44:53.395Z,9.60
2018-12-24T01:47:22.370Z,9.70
2018-12-24T01:49:51.295Z,9.70
2018-12-24T01:52:20.072Z,9.60
2018-12-24T01:54:49.185Z,9.70
2018-12-24T01:57:18.096Z,9.70
2018-12-24T01:59:46.930Z,9.70
2018-12-24T02:02:15.674Z,9.70
2018-12-24T02:04:44.625Z,9.70
2018-12-24T02:07:13.364Z,9.80
2018-12-24T02:09:42.329Z,9.80
2018-12-24T02:12:11.219Z,9.80
2018-12-24T02:14:40.411Z,9.80
2018-12-24T02:17:09.778Z,9.80
2018-12-24T02:19:39.092Z,9.80
2018-12-24T02:22:12.784Z,9.80
2018-12-24T02:24:39.467Z,9.80
2018-12-24T02:27:13.698Z,9.80
2018-12-24T02:29:42.709Z,9.90
2018-12-24T02:32:11.767Z,10.00
2018-12-24T02:34:41.769Z,10.00
2018-12-24T02:37:11.665Z,8.70
2018-12-24T02:39:40.306Z,8.00
2018-12-24T02:42:09.631Z,7.80
2018-12-24T02:44:38.637Z,7.60
2018-12-24T02:47:07.793Z,7.50
2018-12-24T02:49:37.279Z,7.60
2018-12-24T02:52:06.047Z,7.50
2018-12-24T02:54:34.809Z,7.40
2018-12-24T02:57:03.761Z,7.40
2018-12-24T02:59:32.640Z,7.40
2018-12-24T03:02:01.606Z,7.40
2018-12-24T03:11:01.294Z,7.40
2018-12-24T03:13:30.911Z,7.60
2018-12-24T03:16:00.531Z,7.30
2018-12-24T03:18:30.065Z,7.30
2018-12-24T03:20:59.855Z,7.10
2018-12-24T03:23:29.328Z,7.30
2018-12-24T03:25:59.306Z,7.00
2018-12-24T03:28:29.313Z,7.00
2018-12-24T03:30:58.717Z,6.90
2018-12-24T03:33:28.156Z,6.90
2018-12-24T03:35:58.091Z,6.90
2018-12-24T03:38:27.659Z,6.90
2018-12-24T03:40:57.344Z,6.90
2018-12-24T03:43:27.103Z,6.90
2018-12-24T03:45:56.378Z,6.80
2018-12-24T03:48:26.517Z,6.80
2018-12-24T03:50:55.984Z,6.60
2018-12-24T03:53:25.257Z,6.60
2018-12-24T03:55:54.638Z,6.70
2018-12-24T03:58:24.125Z,6.50
2018-12-24T04:00:53.784Z,6.40
2018-12-24T04:03:23.157Z,6.20
2018-12-24T04:05:53.441Z,6.30
2018-12-24T04:08:22.786Z,6.30
2018-12-24T04:10:52.599Z,6.20
2018-12-24T04:13:22.987Z,6.10
2018-12-24T04:15:53.024Z,6.10
2018-12-24T04:18:23.245Z,6.00
2018-12-24T04:20:53.037Z,5.90
2018-12-24T04:23:22.542Z,5.90
2018-12-24T04:25:56.288Z,5.90
2018-12-24T04:28:26.045Z,5.80
2018-12-24T04:30:56.099Z,5.90
2018-12-24T04:33:25.475Z,5.90
2018-12-24T04:35:54.919Z,5.90
2018-12-24T04:38:24.426Z,5.70
2018-12-24T04:40:53.995Z,5.80
2018-12-24T04:43:31.848Z,5.70
2018-12-24T04:45:55.275Z,5.80
2018-12-24T04:48:25.217Z,5.70
2018-12-24T04:50:54.971Z,5.70
2018-12-24T04:53:25.690Z,5.80
2018-12-24T04:55:55.127Z,5.60
2018-12-24T04:58:24.685Z,5.60
2018-12-24T05:00:54.467Z,5.60
2018-12-24T05:03:23.849Z,5.50
2018-12-24T05:05:53.434Z,5.50
2018-12-24T05:08:23.536Z,5.50
2018-12-24T05:10:53.895Z,5.40
2018-12-24T05:13:23.535Z,5.40
2018-12-24T05:15:53.557Z,5.40
2018-12-24T05:18:24.086Z,5.40
2018-12-24T05:20:54.575Z,5.50
2018-12-24T05:23:24.108Z,5.50
2018-12-24T05:25:53.564Z,5.50
2018-12-24T05:28:23.511Z,5.50
2018-12-24T05:30:53.892Z,5.50
2018-12-24T05:33:23.585Z,5.60
2018-12-24T05:35:53.021Z,5.60
2018-12-24T05:38:23.075Z,5.50
2018-12-24T05:44:21.695Z,5.60
2018-12-24T05:46:51.791Z,5.50
2018-12-24T05:49:22.234Z,5.60
2018-12-24T05:51:52.742Z,5.50
2018-12-24T05:54:22.448Z,5.40
2018-12-24T05:56:51.907Z,5.50
2018-12-24T05:59:21.381Z,5.50
2018-12-24T06:01:52.469Z,5.70
2018-12-24T06:04:22.922Z,5.60
2018-12-24T06:06:52.547Z,5.50
2018-12-24T06:09:24.305Z,5.40
2018-12-24T06:11:56.199Z,5.50
2018-12-24T06:14:26.537Z,5.40
2018-12-24T06:16:56.016Z,5.40
2018-12-24T06:19:27.907Z,5.50
2018-12-24T06:21:57.838Z,5.40
2018-12-24T06:24:27.818Z,5.50
2018-12-24T06:26:58.017Z,5.40
2018-12-24T06:29:27.473Z,5.40
2018-12-24T06:31:57.792Z,5.50
2018-12-24T06:34:27.751Z,5.40
2018-12-24T06:36:57.944Z,5.50
2018-12-24T06:39:28.280Z,5.30
2018-12-24T06:41:58.265Z,5.50
2018-12-24T06:44:32.151Z,5.40
2018-12-24T06:47:03.209Z,5.30
2018-12-24T06:49:33.363Z,5.30
2018-12-24T06:52:07.353Z,5.30
2018-12-24T06:54:37.441Z,5.40
2018-12-24T06:57:08.152Z,5.30
2018-12-24T06:59:38.139Z,5.30
2018-12-24T07:02:08.584Z,5.20
2018-12-24T07:04:55.615Z,5.20
2018-12-24T07:07:26.236Z,5.20
2018-12-24T07:09:57.513Z,5.10
2018-12-24T07:12:28.470Z,5.10
2018-12-24T07:14:58.507Z,5.30
2018-12-24T07:17:28.030Z,5.30
2018-12-24T07:19:57.925Z,5.20
2018-12-24T07:22:27.408Z,5.20
2018-12-24T07:24:56.819Z,5.10
2018-12-24T07:27:26.979Z,5.20
2018-12-24T07:29:56.184Z,5.20
2018-12-24T07:32:25.858Z,5.10
2018-12-24T07:34:55.290Z,5.00
2018-12-24T07:37:25.307Z,5.10
2018-12-24T07:39:55.586Z,5.30
2018-12-24T07:42:25.291Z,5.20
2018-12-24T07:46:06.871Z,5.10
2018-12-24T07:48:42.936Z,5.20
2018-12-24T07:51:16.201Z,5.10
2018-12-24T07:53:52.159Z,5.20
2018-12-24T08:00:05.240Z,5.20
2018-12-24T08:02:35.456Z,5.10
2018-12-24T08:05:06.900Z,5.10
2018-12-24T08:07:36.817Z,5.10
2018-12-24T08:10:07.728Z,5.20
2018-12-24T08:12:42.059Z,5.20
2018-12-24T08:15:17.825Z,5.20
2018-12-24T08:17:51.423Z,5.30
2018-12-24T08:20:25.186Z,5.30
2018-12-24T08:22:57.772Z,5.30
2018-12-24T08:25:33.979Z,5.30
2018-12-24T08:28:04.450Z,5.40
2018-12-24T08:30:36.075Z,5.50
2018-12-24T08:33:06.036Z,5.50
2018-12-24T08:35:37.291Z,5.40
2018-12-24T08:38:10.619Z,5.40
2018-12-24T08:40:43.913Z,5.40
2018-12-24T08:43:43.999Z,5.30
2018-12-24T08:46:18.013Z,5.40
2018-12-24T08:48:52.990Z,5.50
2018-12-24T08:51:24.877Z,5.50
2018-12-24T08:53:55.465Z,5.40
2018-12-24T08:56:33.833Z,5.40
2018-12-24T09:03:48.022Z,5.40
2018-12-24T09:06:32.300Z,5.40
2018-12-24T09:09:10.371Z,5.30
2018-12-24T09:11:55.573Z,5.30
2018-12-24T09:14:29.661Z,5.40
2018-12-24T09:17:10.840Z,5.50
2018-12-24T09:19:42.471Z,5.40
2018-12-24T09:22:24.488Z,5.40
2018-12-24T09:25:33.513Z,5.40
2018-12-24T09:28:13.617Z,5.40
2018-12-24T09:31:00.140Z,5.40
2018-12-24T09:33:42.347Z,5.50
2018-12-24T09:36:22.288Z,5.50
2018-12-24T09:38:53.432Z,5.50
2018-12-24T09:41:31.027Z,5.60
2018-12-24T09:44:00.950Z,5.70
2018-12-24T09:46:34.380Z,5.60
2018-12-24T09:49:05.113Z,5.60
2018-12-24T09:51:35.019Z,5.50
2018-12-24T09:54:10.707Z,5.60
2018-12-24T09:56:41.197Z,5.60
2018-12-24T09:59:11.274Z,5.80
2018-12-24T10:01:41.348Z,5.70
2018-12-24T10:04:23.419Z,5.60
2018-12-24T10:06:53.379Z,5.60
2018-12-24T10:09:24.145Z,5.70
2018-12-24T10:11:54.434Z,5.70
2018-12-24T10:14:25.182Z,5.70
2018-12-24T10:16:55.466Z,5.70
2018-12-24T10:19:25.382Z,5.70
2018-12-24T10:21:55.905Z,5.60
2018-12-24T10:24:25.677Z,5.60
2018-12-24T10:26:55.588Z,5.60
2018-12-24T10:29:25.520Z,5.70
2018-12-24T10:31:55.404Z,5.60
2018-12-24T10:34:24.849Z,5.70
2018-12-24T10:36:54.292Z,5.80
2018-12-24T10:39:24.344Z,5.90
2018-12-24T10:41:54.532Z,5.80
2018-12-24T10:44:24.645Z,5.90
2018-12-24T10:46:54.787Z,5.90
2018-12-24T10:49:25.285Z,5.90
2018-12-24T10:51:56.680Z,5.70
2018-12-24T10:54:26.690Z,5.70
2018-12-24T10:56:59.719Z,5.80
2018-12-24T10:59:46.225Z,5.90
2018-12-24T11:02:16.139Z,5.90
2018-12-24T11:04:46.078Z,6.00
2018-12-24T11:07:15.776Z,5.80
2018-12-24T11:09:45.258Z,5.90
2018-12-24T11:12:14.942Z,5.90
2018-12-24T11:14:44.492Z,5.90
2018-12-24T11:17:13.989Z,6.00
2018-12-24T11:19:43.876Z,6.00
2018-12-24T11:22:14.033Z,6.00
2018-12-24T11:24:43.957Z,6.00
2018-12-24T11:27:13.509Z,5.90
2018-12-24T11:29:42.963Z,5.90
2018-12-24T11:32:12.760Z,6.00
2018-12-24T11:34:42.813Z,5.80
2018-12-24T11:37:13.095Z,5.80
2018-12-24T11:39:43.459Z,5.90
2018-12-24T11:42:18.579Z,6.00
2018-12-24T11:44:48.892Z,6.10
2018-12-24T11:47:20.481Z,6.10
2018-12-24T11:49:50.972Z,6.10
2018-12-24T11:52:21.212Z,5.90
2018-12-24T11:54:51.267Z,5.90
2018-12-24T11:57:21.605Z,5.80
2018-12-24T11:59:51.660Z,5.70
2018-12-24T12:02:22.552Z,5.60
2018-12-24T12:04:54.085Z,5.60
2018-12-24T12:07:24.826Z,5.60
2018-12-24T12:09:54.974Z,5.80
2018-12-24T12:12:25.336Z,5.80
2018-12-24T12:14:54.941Z,5.70
2018-12-24T12:17:25.442Z,5.80
2018-12-24T12:19:56.149Z,5.80
2018-12-24T12:22:27.665Z,5.90
2018-12-24T12:24:56.895Z,5.90
2018-12-24T12:27:26.466Z,5.80
2018-12-24T12:29:55.952Z,5.80
2018-12-24T12:32:26.136Z,5.80
2018-12-24T12:35:04.064Z,5.70
2018-12-24T12:37:30.931Z,5.70
2018-12-24T12:40:03.688Z,5.80
2018-12-24T12:42:35.633Z,5.70
2018-12-24T12:45:16.303Z,5.80
2018-12-24T12:47:49.929Z,5.80
2018-12-24T12:50:26.620Z,5.90
2018-12-24T12:52:59.735Z,6.10
2018-12-24T12:55:32.031Z,6.00
2018-12-24T13:01:30.910Z,6.00
2018-12-24T13:04:04.139Z,6.10
2018-12-24T13:06:46.843Z,6.00
2018-12-24T13:09:20.819Z,6.00
2018-12-24T13:12:11.526Z,6.00
2018-12-24T13:14:42.119Z,6.00
2018-12-24T13:17:13.211Z,6.00
2018-12-24T13:19:49.534Z,6.10
2018-12-24T13:22:19.551Z,5.90
2018-12-24T13:24:52.932Z,6.00
2018-12-24T13:27:25.055Z,6.00
2018-12-24T13:29:56.034Z,6.10
2018-12-24T13:32:28.924Z,6.10
2018-12-24T13:34:59.148Z,6.10
2018-12-24T13:41:02.644Z,6.20
2018-12-24T13:43:35.268Z,6.20
2018-12-24T13:46:11.486Z,6.20
2018-12-24T13:49:01.201Z,6.30
2018-12-24T13:51:47.081Z,6.30
2018-12-24T13:54:21.005Z,6.20
2018-12-24T13:56:54.587Z,6.20
2018-12-24T13:59:30.891Z,6.20
2018-12-24T14:02:04.448Z,6.10
2018-12-24T14:07:15.553Z,6.10
2018-12-24T14:09:56.875Z,5.90
2018-12-24T14:12:27.091Z,5.70
2018-12-24T14:14:58.218Z,5.60
2018-12-24T14:17:29.694Z,5.40
2018-12-24T14:20:01.247Z,5.30
2018-12-24T14:22:31.581Z,5.40
2018-12-24T14:25:15.067Z,5.40
2018-12-24T14:27:47.080Z,5.40
2018-12-24T14:30:23.512Z,5.40
2018-12-24T14:32:57.244Z,5.40
2018-12-24T14:35:27.710Z,5.50
2018-12-24T14:37:57.584Z,5.50
2018-12-24T14:40:27.221Z,5.50
2018-12-24T14:42:57.286Z,5.50
2018-12-24T14:45:27.324Z,5.40
2018-12-24T14:47:56.736Z,5.40
2018-12-24T14:50:26.324Z,5.30
2018-12-24T14:52:56.314Z,5.40
2018-12-24T14:55:26.689Z,5.30
2018-12-24T14:57:56.489Z,5.30
2018-12-24T15:00:26.540Z,5.20
2018-12-24T15:02:56.010Z,5.20
2018-12-24T15:05:25.908Z,5.20
2018-12-24T15:07:55.533Z,5.30
2018-12-24T15:10:25.146Z,5.30
2018-12-24T15:12:54.925Z,5.30
2018-12-24T15:15:24.858Z,5.30
2018-12-24T15:17:55.979Z,5.30
2018-12-24T15:20:26.662Z,5.40
2018-12-24T15:22:57.005Z,5.30
2018-12-24T15:25:26.403Z,5.30
2018-12-24T15:27:55.595Z,5.30
2018-12-24T15:30:25.807Z,5.30
2018-12-24T15:32:55.123Z,5.40
2018-12-24T15:35:25.232Z,5.40
2018-12-24T15:37:55.197Z,5.30
2018-12-24T15:40:25.009Z,5.30
2018-12-24T15:42:54.976Z,5.30
2018-12-24T15:45:24.581Z,5.10
2018-12-24T15:47:54.819Z,5.10
2018-12-24T15:50:24.845Z,5.00
2018-12-24T15:52:54.432Z,5.00
2018-12-24T15:55:24.156Z,5.00
2018-12-24T15:57:53.528Z,5.00
2018-12-24T16:00:23.929Z,5.10
2018-12-24T16:02:53.951Z,5.00
2018-12-24T16:05:24.558Z,5.00
2018-12-24T16:07:55.828Z,4.70
2018-12-24T16:10:27.139Z,4.70
2018-12-24T16:12:57.295Z,4.60
2018-12-24T16:15:27.379Z,4.70
2018-12-24T16:17:58.055Z,4.60
2018-12-24T16:20:29.263Z,4.60
2018-12-24T16:23:02.813Z,4.50
2018-12-24T16:25:33.013Z,4.50
2018-12-24T16:28:02.903Z,4.40
2018-12-24T16:30:37.923Z,4.60
2018-12-24T16:33:08.692Z,4.60
2018-12-24T16:35:46.374Z,4.70
2018-12-24T16:38:15.887Z,4.60
2018-12-24T16:40:45.829Z,4.60
2018-12-24T16:43:15.531Z,4.60
2018-12-24T16:45:46.144Z,4.60
2018-12-24T16:48:19.529Z,4.60
2018-12-24T16:50:50.876Z,4.50
2018-12-24T16:53:21.382Z,4.50
2018-12-24T16:55:51.316Z,4.50
2018-12-24T16:58:22.688Z,4.50
2018-12-24T17:00:52.805Z,4.50
2018-12-24T17:03:22.905Z,4.50
2018-12-24T17:05:52.591Z,4.60
2018-12-24T17:08:22.520Z,4.60
2018-12-24T17:10:52.686Z,4.60
2018-12-24T17:13:23.002Z,4.60
2018-12-24T17:15:53.089Z,4.60
2018-12-24T17:18:24.072Z,4.70
2018-12-24T17:20:54.998Z,4.70
2018-12-24T17:23:25.064Z,4.80
2018-12-24T17:25:54.751Z,4.80
2018-12-24T17:28:25.039Z,4.70
2018-12-24T17:30:54.730Z,4.60
2018-12-24T17:33:24.326Z,4.50
2018-12-24T17:35:54.351Z,4.50
2018-12-24T17:38:24.253Z,4.40
2018-12-24T17:40:54.224Z,4.60
2018-12-24T17:43:24.545Z,4.60
2018-12-24T17:45:56.142Z,4.70
2018-12-24T17:48:25.779Z,4.70
2018-12-24T17:50:56.686Z,4.70
2018-12-24T17:53:26.409Z,4.70
2018-12-24T17:55:56.941Z,4.70
2018-12-24T17:58:26.334Z,4.80
2018-12-24T18:00:55.638Z,4.80
2018-12-24T18:03:25.177Z,4.80
2018-12-24T18:05:54.511Z,4.70
2018-12-24T18:08:24.926Z,4.60
2018-12-24T18:10:54.653Z,4.60
2018-12-24T18:13:24.326Z,4.60
2018-12-24T18:15:53.930Z,4.50
2018-12-24T18:18:23.732Z,4.50
2018-12-24T18:20:53.041Z,4.40
2018-12-24T18:23:32.389Z,4.40
2018-12-24T18:26:35.986Z,4.40
2018-12-24T18:29:54.743Z,4.30
2018-12-24T18:32:50.114Z,4.30
2018-12-24T18:35:21.291Z,4.40
2018-12-24T18:38:13.550Z,4.40
2018-12-24T18:40:52.352Z,4.40
2018-12-24T18:43:41.419Z,4.40
2018-12-24T18:46:10.795Z,4.50
2018-12-24T18:48:41.058Z,4.40
2018-12-24T18:51:13.117Z,4.30
2018-12-24T18:53:42.950Z,4.20
2018-12-24T18:56:13.227Z,4.10
2018-12-24T18:58:43.158Z,4.00
2018-12-24T19:01:14.192Z,4.10
2018-12-24T19:03:44.279Z,4.10
2018-12-24T19:06:14.719Z,4.20
2018-12-24T19:08:44.246Z,4.20
2018-12-24T19:11:14.230Z,4.10
2018-12-24T19:13:43.840Z,4.10
2018-12-24T19:16:13.771Z,4.20
2018-12-24T19:18:44.342Z,4.20
2018-12-24T19:21:14.029Z,4.20
2018-12-24T19:23:44.819Z,4.10
2018-12-24T19:26:19.690Z,4.20
2018-12-24T19:28:50.788Z,4.20
2018-12-24T19:31:20.529Z,4.20
2018-12-24T19:33:50.013Z,4.10
2018-12-24T19:36:20.227Z,4.10
2018-12-24T19:38:50.624Z,4.10
2018-12-24T19:41:20.530Z,4.10
2018-12-24T19:43:50.593Z,4.00
2018-12-24T19:46:20.318Z,4.00
2018-12-24T19:48:50.023Z,4.00
2018-12-24T19:51:19.299Z,3.90
2018-12-24T19:53:49.490Z,3.90
2018-12-24T19:56:19.356Z,3.80
2018-12-24T19:58:54.452Z,3.80
2018-12-24T20:01:24.697Z,3.90
2018-12-24T20:03:54.417Z,3.90
2018-12-24T20:06:24.134Z,4.00
2018-12-24T20:08:54.204Z,4.00
2018-12-24T20:11:25.447Z,4.00
2018-12-24T20:13:56.120Z,3.90
2018-12-24T20:16:28.133Z,3.90
2018-12-24T20:19:00.801Z,3.80
2018-12-24T20:21:30.949Z,3.90
2018-12-24T20:24:01.734Z,3.80
2018-12-24T20:26:32.045Z,3.80
2018-12-24T20:29:02.074Z,3.60
2018-12-24T20:31:33.624Z,3.60
2018-12-24T20:34:03.861Z,3.50
2018-12-24T20:36:34.210Z,3.60
2018-12-24T20:39:05.786Z,3.60
2018-12-24T20:41:35.757Z,3.60
2018-12-24T20:44:07.320Z,3.70
2018-12-24T20:46:37.457Z,3.60
2018-12-24T20:49:07.805Z,3.50
2018-12-24T20:51:38.490Z,3.30
2018-12-24T20:54:08.045Z,3.30
2018-12-24T20:56:39.823Z,3.20
2018-12-24T20:59:10.540Z,3.10
2018-12-24T21:01:40.618Z,3.10
2018-12-24T21:04:10.853Z,3.20
2018-12-24T21:06:40.854Z,3.20
2018-12-24T21:09:12.626Z,3.30
2018-12-24T21:11:42.837Z,3.50
2018-12-24T21:14:16.825Z,3.40
2018-12-24T21:16:48.178Z,3.20
2018-12-24T21:19:18.915Z,3.10
2018-12-24T21:21:48.671Z,3.10
2018-12-24T21:24:18.541Z,3.00
2018-12-24T21:26:48.761Z,3.10
2018-12-24T21:29:18.471Z,3.10
2018-12-24T21:31:48.347Z,3.20
2018-12-24T21:34:18.408Z,3.10
2018-12-24T21:36:48.871Z,3.10
2018-12-24T21:39:21.937Z,3.10
2018-12-24T21:41:51.814Z,3.00
2018-12-24T21:44:21.688Z,3.00
2018-12-24T21:46:52.489Z,3.00
2018-12-24T21:49:22.806Z,2.90
2018-12-24T21:51:53.173Z,2.80
2018-12-24T21:54:23.042Z,2.70
2018-12-24T21:56:53.196Z,2.70
2018-12-24T21:59:23.387Z,2.70
2018-12-24T22:01:53.261Z,2.70
2018-12-24T22:04:22.896Z,2.80
2018-12-24T22:06:52.957Z,2.80
2018-12-24T22:09:28.282Z,2.80
2018-12-24T22:11:59.602Z,2.90
2018-12-24T22:14:29.824Z,2.80
2018-12-24T22:16:59.940Z,2.90
2018-12-24T22:19:30.968Z,3.00
2018-12-24T22:22:01.248Z,3.00
2018-12-24T22:24:31.070Z,3.00
2018-12-24T22:27:00.954Z,2.80
2018-12-24T22:29:31.593Z,2.80
2018-12-24T22:32:01.597Z,2.80
2018-12-24T22:34:34.958Z,2.70
2018-12-24T22:37:04.768Z,2.60
2018-12-24T22:39:35.112Z,2.60
2018-12-24T22:42:04.941Z,2.60
2018-12-24T22:44:34.964Z,2.70
2018-12-24T22:47:05.430Z,2.70
2018-12-24T22:49:35.112Z,2.80
2018-12-24T22:52:05.850Z,2.80
2018-12-24T22:54:35.641Z,2.90
2018-12-24T22:57:06.325Z,2.80
2018-12-24T22:59:36.189Z,2.70
2018-12-24T23:02:06.224Z,2.60
2018-12-24T23:04:36.247Z,2.70
2018-12-24T23:07:05.888Z,2.60
2018-12-24T23:09:35.988Z,2.70
2018-12-24T23:12:05.959Z,2.70
2018-12-24T23:14:35.849Z,2.50
2018-12-24T23:17:06.000Z,2.40
2018-12-24T23:19:35.915Z,2.50
2018-12-24T23:22:07.111Z,2.50
2018-12-24T23:24:37.146Z,2.60
2018-12-24T23:27:07.417Z,2.50
2018-12-24T23:29:38.065Z,2.40
2018-12-24T23:32:07.764Z,2.50
2018-12-24T23:34:37.693Z,2.50
2018-12-24T23:37:08.564Z,2.50
2018-12-24T23:39:39.340Z,2.60
2018-12-24T23:42:09.561Z,2.60
2018-12-24T23:44:40.587Z,2.50
2018-12-24T23:47:10.937Z,2.40
2018-12-24T23:49:43.990Z,2.30
2018-12-24T23:52:13.813Z,2.30
2018-12-24T23:54:43.531Z,2.30
2018-12-24T23:57:13.193Z,2.30
2018-12-24T23:59:42.711Z,2.20
